sensor_id;sensor_type;location;lat;lon;timestamp;P1;durP1;ratioP1;P2;durP2;ratioP2
13197;SDS011;6664;52.514;13.440;2023-03-08T00:02:24;1.83;;;0.80;;
13197;SDS011;6664;52.514;13.440;2023-03-08T00:05:12;8.93;;;2.13;;
13197;SDS011;6664;52.514;13.440;2023-03-08T00:07:57;2.33;;;1.30;;
13197;SDS011;6664;52.514;13.440;2023-03-08T00:10:42;4.43;;;1.43;;
13197;SDS011;6664;52.514;13.440;2023-03-08T00:13:31;3.20;;;1.40;;
13197;SDS011;6664;52.514;13.440;2023-03-08T00:16:17;1.50;;;1.40;;
13197;SDS011;6664;52.514;13.440;2023-03-08T00:19:03;1.47;;;1.37;;
13197;SDS011;6664;52.514;13.440;2023-03-08T00:21:48;1.90;;;0.90;;
13197;SDS011;6664;52.514;13.440;2023-03-08T00:24:36;1.77;;;1.40;;
13197;SDS011;6664;52.514;13.440;2023-03-08T00:27:22;2.53;;;1.30;;
13197;SDS011;6664;52.514;13.440;2023-03-08T00:30:13;0.83;;;0.83;;
13197;SDS011;6664;52.514;13.440;2023-03-08T00:32:59;1.40;;;1.30;;
13197;SDS011;6664;52.514;13.440;2023-03-08T00:35:52;2.90;;;1.40;;
13197;SDS011;6664;52.514;13.440;2023-03-08T00:38:42;1.40;;;1.30;;
13197;SDS011;6664;52.514;13.440;2023-03-08T00:41:28;2.17;;;1.00;;
13197;SDS011;6664;52.514;13.440;2023-03-08T00:44:16;1.97;;;1.40;;
13197;SDS011;6664;52.514;13.440;2023-03-08T00:47:01;1.53;;;1.43;;
13197;SDS011;6664;52.514;13.440;2023-03-08T00:49:47;1.50;;;1.40;;
13197;SDS011;6664;52.514;13.440;2023-03-08T00:52:32;1.33;;;1.33;;
13197;SDS011;6664;52.514;13.440;2023-03-08T00:55:20;9.97;;;1.80;;
13197;SDS011;6664;52.514;13.440;2023-03-08T00:58:06;5.50;;;1.17;;
13197;SDS011;6664;52.514;13.440;2023-03-08T01:00:51;1.23;;;1.17;;
13197;SDS011;6664;52.514;13.440;2023-03-08T01:03:40;3.43;;;1.70;;
13197;SDS011;6664;52.514;13.440;2023-03-08T01:06:28;1.83;;;1.60;;
13197;SDS011;6664;52.514;13.440;2023-03-08T01:09:13;1.33;;;1.10;;
13197;SDS011;6664;52.514;13.440;2023-03-08T01:11:59;4.07;;;2.03;;
13197;SDS011;6664;52.514;13.440;2023-03-08T01:14:46;2.07;;;1.40;;
13197;SDS011;6664;52.514;13.440;2023-03-08T01:17:31;1.63;;;1.53;;
13197;SDS011;6664;52.514;13.440;2023-03-08T01:20:22;8.03;;;1.60;;
13197;SDS011;6664;52.514;13.440;2023-03-08T01:23:08;1.50;;;1.40;;
13197;SDS011;6664;52.514;13.440;2023-03-08T01:25:58;1.47;;;1.37;;
13197;SDS011;6664;52.514;13.440;2023-03-08T01:28:46;2.43;;;1.80;;
13197;SDS011;6664;52.514;13.440;2023-03-08T01:31:34;5.83;;;1.90;;
13197;SDS011;6664;52.514;13.440;2023-03-08T01:34:20;4.83;;;1.80;;
13197;SDS011;6664;52.514;13.440;2023-03-08T01:37:05;1.40;;;1.30;;
13197;SDS011;6664;52.514;13.440;2023-03-08T01:39:53;9.20;;;2.70;;
13197;SDS011;6664;52.514;13.440;2023-03-08T01:42:40;2.70;;;2.03;;
13197;SDS011;6664;52.514;13.440;2023-03-08T01:51:48;7.60;;;2.20;;
13197;SDS011;6664;52.514;13.440;2023-03-08T01:54:48;2.60;;;2.40;;
13197;SDS011;6664;52.514;13.440;2023-03-08T01:57:45;2.50;;;2.20;;
13197;SDS011;6664;52.514;13.440;2023-03-08T02:00:35;6.07;;;2.57;;
13197;SDS011;6664;52.514;13.440;2023-03-08T02:03:22;2.27;;;2.07;;
13197;SDS011;6664;52.514;13.440;2023-03-08T02:06:08;2.43;;;2.20;;
13197;SDS011;6664;52.514;13.440;2023-03-08T02:08:56;3.10;;;2.80;;
13197;SDS011;6664;52.514;13.440;2023-03-08T02:11:42;3.10;;;2.80;;
13197;SDS011;6664;52.514;13.440;2023-03-08T02:14:28;3.77;;;2.70;;
13197;SDS011;6664;52.514;13.440;2023-03-08T02:17:14;7.80;;;2.80;;
13197;SDS011;6664;52.514;13.440;2023-03-08T02:26:03;4.20;;;3.20;;
13197;SDS011;6664;52.514;13.440;2023-03-08T02:28:52;4.83;;;2.43;;
13197;SDS011;6664;52.514;13.440;2023-03-08T02:31:38;3.80;;;3.20;;
13197;SDS011;6664;52.514;13.440;2023-03-08T02:34:26;6.53;;;3.13;;
13197;SDS011;6664;52.514;13.440;2023-03-08T02:37:12;4.33;;;3.37;;
13197;SDS011;6664;52.514;13.440;2023-03-08T02:39:57;4.57;;;3.40;;
13197;SDS011;6664;52.514;13.440;2023-03-08T02:42:43;5.27;;;3.03;;
13197;SDS011;6664;52.514;13.440;2023-03-08T02:45:29;4.30;;;3.53;;
13197;SDS011;6664;52.514;13.440;2023-03-08T02:48:15;6.40;;;3.40;;
13197;SDS011;6664;52.514;13.440;2023-03-08T02:51:01;6.40;;;4.73;;
13197;SDS011;6664;52.514;13.440;2023-03-08T02:53:49;8.03;;;4.10;;
13197;SDS011;6664;52.514;13.440;2023-03-08T02:56:35;6.00;;;4.30;;
13197;SDS011;6664;52.514;13.440;2023-03-08T02:59:24;11.33;;;4.60;;
13197;SDS011;6664;52.514;13.440;2023-03-08T03:02:13;4.37;;;3.43;;
13197;SDS011;6664;52.514;13.440;2023-03-08T03:04:59;6.20;;;4.57;;
13197;SDS011;6664;52.514;13.440;2023-03-08T03:07:45;5.10;;;4.00;;
13197;SDS011;6664;52.514;13.440;2023-03-08T03:10:33;5.17;;;4.03;;
13197;SDS011;6664;52.514;13.440;2023-03-08T03:13:19;6.50;;;4.13;;
13197;SDS011;6664;52.514;13.440;2023-03-08T03:16:08;4.13;;;3.73;;
13197;SDS011;6664;52.514;13.440;2023-03-08T03:18:56;6.37;;;4.03;;
13197;SDS011;6664;52.514;13.440;2023-03-08T03:21:47;6.57;;;4.40;;
13197;SDS011;6664;52.514;13.440;2023-03-08T03:24:34;6.03;;;3.87;;
13197;SDS011;6664;52.514;13.440;2023-03-08T03:27:21;9.80;;;4.67;;
13197;SDS011;6664;52.514;13.440;2023-03-08T03:30:07;4.83;;;4.37;;
13197;SDS011;6664;52.514;13.440;2023-03-08T03:32:55;9.70;;;4.03;;
13197;SDS011;6664;52.514;13.440;2023-03-08T03:35:41;7.40;;;4.47;;
13197;SDS011;6664;52.514;13.440;2023-03-08T03:38:26;9.77;;;4.20;;
13197;SDS011;6664;52.514;13.440;2023-03-08T03:41:13;4.83;;;3.63;;
13197;SDS011;6664;52.514;13.440;2023-03-08T03:44:00;3.90;;;3.50;;
13197;SDS011;6664;52.514;13.440;2023-03-08T03:46:46;5.93;;;4.37;;
13197;SDS011;6664;52.514;13.440;2023-03-08T03:49:31;4.90;;;3.90;;
13197;SDS011;6664;52.514;13.440;2023-03-08T03:52:17;6.30;;;4.90;;
13197;SDS011;6664;52.514;13.440;2023-03-08T03:55:05;5.97;;;4.50;;
13197;SDS011;6664;52.514;13.440;2023-03-08T03:57:54;11.80;;;4.90;;
13197;SDS011;6664;52.514;13.440;2023-03-08T04:00:42;6.30;;;4.30;;
13197;SDS011;6664;52.514;13.440;2023-03-08T04:03:28;10.97;;;4.17;;
13197;SDS011;6664;52.514;13.440;2023-03-08T04:06:16;5.80;;;4.00;;
13197;SDS011;6664;52.514;13.440;2023-03-08T04:09:07;11.70;;;5.10;;
13197;SDS011;6664;52.514;13.440;2023-03-08T04:11:59;7.83;;;5.07;;
13197;SDS011;6664;52.514;13.440;2023-03-08T04:14:49;9.53;;;5.17;;
13197;SDS011;6664;52.514;13.440;2023-03-08T04:17:34;5.73;;;4.20;;
13197;SDS011;6664;52.514;13.440;2023-03-08T04:20:22;5.57;;;4.40;;
13197;SDS011;6664;52.514;13.440;2023-03-08T04:23:08;6.33;;;4.17;;
13197;SDS011;6664;52.514;13.440;2023-03-08T04:25:53;10.20;;;5.00;;
13197;SDS011;6664;52.514;13.440;2023-03-08T04:28:40;6.43;;;3.83;;
13197;SDS011;6664;52.514;13.440;2023-03-08T04:31:27;5.83;;;4.30;;
13197;SDS011;6664;52.514;13.440;2023-03-08T04:34:16;5.83;;;4.70;;
13197;SDS011;6664;52.514;13.440;2023-03-08T04:37:02;10.50;;;4.83;;
13197;SDS011;6664;52.514;13.440;2023-03-08T04:39:47;3.87;;;3.43;;
13197;SDS011;6664;52.514;13.440;2023-03-08T04:42:32;6.30;;;4.43;;
13197;SDS011;6664;52.514;13.440;2023-03-08T04:45:18;5.23;;;3.97;;
13197;SDS011;6664;52.514;13.440;2023-03-08T04:48:03;5.23;;;4.07;;
13197;SDS011;6664;52.514;13.440;2023-03-08T04:51:07;5.57;;;4.03;;
13197;SDS011;6664;52.514;13.440;2023-03-08T04:53:54;4.80;;;4.37;;
13197;SDS011;6664;52.514;13.440;2023-03-08T04:56:40;4.97;;;3.90;;
13197;SDS011;6664;52.514;13.440;2023-03-08T04:59:26;6.90;;;4.07;;
13197;SDS011;6664;52.514;13.440;2023-03-08T05:02:11;5.50;;;4.00;;
13197;SDS011;6664;52.514;13.440;2023-03-08T05:04:56;9.53;;;5.03;;
13197;SDS011;6664;52.514;13.440;2023-03-08T05:07:44;6.43;;;3.80;;
13197;SDS011;6664;52.514;13.440;2023-03-08T05:10:31;5.03;;;4.53;;
13197;SDS011;6664;52.514;13.440;2023-03-08T05:13:16;5.33;;;3.70;;
13197;SDS011;6664;52.514;13.440;2023-03-08T05:16:02;6.40;;;4.60;;
13197;SDS011;6664;52.514;13.440;2023-03-08T05:18:49;4.27;;;3.87;;
13197;SDS011;6664;52.514;13.440;2023-03-08T05:21:34;13.43;;;3.93;;
13197;SDS011;6664;52.514;13.440;2023-03-08T05:24:20;5.23;;;3.80;;
13197;SDS011;6664;52.514;13.440;2023-03-08T05:27:07;6.87;;;3.90;;
13197;SDS011;6664;52.514;13.440;2023-03-08T05:29:54;8.53;;;3.90;;
13197;SDS011;6664;52.514;13.440;2023-03-08T05:32:39;9.17;;;5.50;;
13197;SDS011;6664;52.514;13.440;2023-03-08T05:35:25;6.17;;;4.60;;
13197;SDS011;6664;52.514;13.440;2023-03-08T05:38:10;5.70;;;4.47;;
13197;SDS011;6664;52.514;13.440;2023-03-08T05:40:59;5.13;;;4.27;;
13197;SDS011;6664;52.514;13.440;2023-03-08T05:43:46;7.43;;;4.00;;
13197;SDS011;6664;52.514;13.440;2023-03-08T05:46:34;8.00;;;5.17;;
13197;SDS011;6664;52.514;13.440;2023-03-08T05:49:22;8.93;;;4.50;;
13197;SDS011;6664;52.514;13.440;2023-03-08T05:52:10;9.40;;;4.90;;
13197;SDS011;6664;52.514;13.440;2023-03-08T05:54:56;8.93;;;4.30;;
13197;SDS011;6664;52.514;13.440;2023-03-08T05:57:43;5.73;;;3.70;;
13197;SDS011;6664;52.514;13.440;2023-03-08T06:00:29;8.43;;;4.50;;
13197;SDS011;6664;52.514;13.440;2023-03-08T06:03:19;5.50;;;3.80;;
13197;SDS011;6664;52.514;13.440;2023-03-08T06:06:05;14.20;;;4.53;;
13197;SDS011;6664;52.514;13.440;2023-03-08T06:08:50;5.30;;;4.70;;
13197;SDS011;6664;52.514;13.440;2023-03-08T06:11:36;5.60;;;4.23;;
13197;SDS011;6664;52.514;13.440;2023-03-08T06:14:24;6.03;;;4.67;;
13197;SDS011;6664;52.514;13.440;2023-03-08T06:17:10;5.37;;;4.70;;
13197;SDS011;6664;52.514;13.440;2023-03-08T06:19:58;10.10;;;5.13;;
13197;SDS011;6664;52.514;13.440;2023-03-08T06:22:43;6.33;;;4.17;;
13197;SDS011;6664;52.514;13.440;2023-03-08T06:25:28;5.43;;;4.60;;
13197;SDS011;6664;52.514;13.440;2023-03-08T06:28:14;4.73;;;4.23;;
13197;SDS011;6664;52.514;13.440;2023-03-08T06:31:02;5.10;;;4.60;;
13197;SDS011;6664;52.514;13.440;2023-03-08T06:33:47;7.00;;;4.77;;
13197;SDS011;6664;52.514;13.440;2023-03-08T06:36:35;4.37;;;3.97;;
13197;SDS011;6664;52.514;13.440;2023-03-08T06:39:21;5.10;;;4.60;;
13197;SDS011;6664;52.514;13.440;2023-03-08T06:42:11;5.30;;;4.67;;
13197;SDS011;6664;52.514;13.440;2023-03-08T06:44:56;5.77;;;3.93;;
13197;SDS011;6664;52.514;13.440;2023-03-08T06:47:42;5.60;;;4.70;;
13197;SDS011;6664;52.514;13.440;2023-03-08T06:50:27;6.60;;;5.10;;
13197;SDS011;6664;52.514;13.440;2023-03-08T06:53:12;6.60;;;4.50;;
13197;SDS011;6664;52.514;13.440;2023-03-08T06:55:58;4.80;;;4.03;;
13197;SDS011;6664;52.514;13.440;2023-03-08T06:58:46;7.90;;;4.60;;
13197;SDS011;6664;52.514;13.440;2023-03-08T07:01:34;6.83;;;4.23;;
13197;SDS011;6664;52.514;13.440;2023-03-08T07:04:22;8.07;;;3.67;;
13197;SDS011;6664;52.514;13.440;2023-03-08T07:07:12;7.13;;;4.20;;
13197;SDS011;6664;52.514;13.440;2023-03-08T07:09:58;7.03;;;3.73;;
13197;SDS011;6664;52.514;13.440;2023-03-08T07:12:43;7.53;;;4.47;;
13197;SDS011;6664;52.514;13.440;2023-03-08T07:15:31;5.93;;;4.70;;
13197;SDS011;6664;52.514;13.440;2023-03-08T07:18:17;4.13;;;3.80;;
13197;SDS011;6664;52.514;13.440;2023-03-08T07:21:06;6.97;;;3.80;;
13197;SDS011;6664;52.514;13.440;2023-03-08T07:23:53;6.47;;;4.40;;
13197;SDS011;6664;52.514;13.440;2023-03-08T07:26:39;7.77;;;4.53;;
13197;SDS011;6664;52.514;13.440;2023-03-08T07:29:24;7.67;;;5.00;;
13197;SDS011;6664;52.514;13.440;2023-03-08T07:32:12;6.50;;;4.50;;
13197;SDS011;6664;52.514;13.440;2023-03-08T07:34:58;4.73;;;4.30;;
13197;SDS011;6664;52.514;13.440;2023-03-08T07:37:45;6.83;;;4.90;;
13197;SDS011;6664;52.514;13.440;2023-03-08T07:40:35;7.03;;;4.47;;
13197;SDS011;6664;52.514;13.440;2023-03-08T07:43:20;6.70;;;4.60;;
13197;SDS011;6664;52.514;13.440;2023-03-08T07:46:07;5.00;;;4.13;;
13197;SDS011;6664;52.514;13.440;2023-03-08T07:48:53;5.20;;;4.60;;
13197;SDS011;6664;52.514;13.440;2023-03-08T07:51:39;6.93;;;4.00;;
13197;SDS011;6664;52.514;13.440;2023-03-08T07:54:27;7.30;;;4.10;;
13197;SDS011;6664;52.514;13.440;2023-03-08T07:57:13;4.30;;;3.90;;
13197;SDS011;6664;52.514;13.440;2023-03-08T08:00:01;5.40;;;4.30;;
13197;SDS011;6664;52.514;13.440;2023-03-08T08:02:51;6.20;;;4.20;;
13197;SDS011;6664;52.514;13.440;2023-03-08T08:05:38;5.90;;;4.63;;
13197;SDS011;6664;52.514;13.440;2023-03-08T08:08:23;9.80;;;4.00;;
13197;SDS011;6664;52.514;13.440;2023-03-08T08:11:15;4.97;;;4.30;;
13197;SDS011;6664;52.514;13.440;2023-03-08T08:14:04;4.90;;;4.00;;
13197;SDS011;6664;52.514;13.440;2023-03-08T08:16:50;5.20;;;3.60;;
13197;SDS011;6664;52.514;13.440;2023-03-08T08:19:37;5.77;;;3.93;;
13197;SDS011;6664;52.514;13.440;2023-03-08T08:22:23;8.30;;;4.67;;
13197;SDS011;6664;52.514;13.440;2023-03-08T08:25:09;5.83;;;4.43;;
13197;SDS011;6664;52.514;13.440;2023-03-08T08:27:55;5.20;;;4.57;;
13197;SDS011;6664;52.514;13.440;2023-03-08T08:30:41;7.50;;;3.37;;
13197;SDS011;6664;52.514;13.440;2023-03-08T08:33:28;4.93;;;4.43;;
13197;SDS011;6664;52.514;13.440;2023-03-08T08:36:16;3.67;;;3.30;;
13197;SDS011;6664;52.514;13.440;2023-03-08T08:39:03;6.10;;;3.93;;
13197;SDS011;6664;52.514;13.440;2023-03-08T08:41:49;5.83;;;3.70;;
13197;SDS011;6664;52.514;13.440;2023-03-08T08:44:34;4.20;;;3.50;;
13197;SDS011;6664;52.514;13.440;2023-03-08T08:47:22;4.57;;;3.33;;
13197;SDS011;6664;52.514;13.440;2023-03-08T08:50:14;7.50;;;3.80;;
13197;SDS011;6664;52.514;13.440;2023-03-08T08:53:00;3.70;;;3.27;;
13197;SDS011;6664;52.514;13.440;2023-03-08T08:55:45;9.87;;;3.57;;
13197;SDS011;6664;52.514;13.440;2023-03-08T08:58:32;4.40;;;3.10;;
13197;SDS011;6664;52.514;13.440;2023-03-08T09:01:21;3.40;;;3.10;;
13197;SDS011;6664;52.514;13.440;2023-03-08T09:04:10;2.90;;;2.67;;
13197;SDS011;6664;52.514;13.440;2023-03-08T09:06:57;7.63;;;3.10;;
13197;SDS011;6664;52.514;13.440;2023-03-08T09:09:43;6.00;;;2.87;;
13197;SDS011;6664;52.514;13.440;2023-03-08T09:12:30;3.07;;;2.77;;
13197;SDS011;6664;52.514;13.440;2023-03-08T09:15:17;5.47;;;3.63;;
13197;SDS011;6664;52.514;13.440;2023-03-08T09:18:03;4.87;;;3.73;;
13197;SDS011;6664;52.514;13.440;2023-03-08T09:20:51;2.73;;;2.53;;
13197;SDS011;6664;52.514;13.440;2023-03-08T09:23:37;2.83;;;2.60;;
13197;SDS011;6664;52.514;13.440;2023-03-08T09:26:25;2.33;;;2.20;;
13197;SDS011;6664;52.514;13.440;2023-03-08T09:29:12;2.60;;;2.40;;
13197;SDS011;6664;52.514;13.440;2023-03-08T09:31:58;3.50;;;3.20;;
13197;SDS011;6664;52.514;13.440;2023-03-08T09:34:50;6.23;;;3.37;;
13197;SDS011;6664;52.514;13.440;2023-03-08T09:37:38;2.33;;;2.13;;
13197;SDS011;6664;52.514;13.440;2023-03-08T09:40:24;3.37;;;2.90;;
13197;SDS011;6664;52.514;13.440;2023-03-08T09:43:10;5.13;;;2.37;;
13197;SDS011;6664;52.514;13.440;2023-03-08T09:46:09;3.30;;;2.77;;
13197;SDS011;6664;52.514;13.440;2023-03-08T09:49:11;2.10;;;1.97;;
13197;SDS011;6664;52.514;13.440;2023-03-08T09:58:18;4.50;;;2.33;;
13197;SDS011;6664;52.514;13.440;2023-03-08T10:01:37;2.67;;;2.47;;
13197;SDS011;6664;52.514;13.440;2023-03-08T10:10:57;4.13;;;2.50;;
13197;SDS011;6664;52.514;13.440;2023-03-08T10:13:47;2.73;;;2.40;;
13197;SDS011;6664;52.514;13.440;2023-03-08T10:16:37;4.83;;;2.47;;
13197;SDS011;6664;52.514;13.440;2023-03-08T10:22:27;2.83;;;2.53;;
13197;SDS011;6664;52.514;13.440;2023-03-08T10:28:10;2.93;;;2.03;;
13197;SDS011;6664;52.514;13.440;2023-03-08T10:31:04;5.43;;;1.77;;
13197;SDS011;6664;52.514;13.440;2023-03-08T10:37:04;3.97;;;3.10;;
13197;SDS011;6664;52.514;13.440;2023-03-08T10:39:52;4.63;;;2.60;;
13197;SDS011;6664;52.514;13.440;2023-03-08T10:42:41;2.73;;;2.53;;
13197;SDS011;6664;52.514;13.440;2023-03-08T10:45:39;2.80;;;2.53;;
13197;SDS011;6664;52.514;13.440;2023-03-08T10:48:27;2.47;;;2.27;;
13197;SDS011;6664;52.514;13.440;2023-03-08T10:51:23;2.60;;;2.40;;
13197;SDS011;6664;52.514;13.440;2023-03-08T10:54:10;3.77;;;2.13;;
13197;SDS011;6664;52.514;13.440;2023-03-08T10:56:59;2.40;;;2.20;;
13197;SDS011;6664;52.514;13.440;2023-03-08T10:59:49;2.87;;;2.10;;
13197;SDS011;6664;52.514;13.440;2023-03-08T11:02:38;2.10;;;1.90;;
13197;SDS011;6664;52.514;13.440;2023-03-08T11:05:24;3.10;;;2.20;;
13197;SDS011;6664;52.514;13.440;2023-03-08T11:08:17;1.93;;;1.70;;
13197;SDS011;6664;52.514;13.440;2023-03-08T11:11:12;2.10;;;2.00;;
13197;SDS011;6664;52.514;13.440;2023-03-08T11:14:00;2.10;;;1.90;;
13197;SDS011;6664;52.514;13.440;2023-03-08T11:19:46;2.40;;;2.20;;
13197;SDS011;6664;52.514;13.440;2023-03-08T11:23:01;5.97;;;2.20;;
13197;SDS011;6664;52.514;13.440;2023-03-08T11:25:54;2.80;;;1.70;;
13197;SDS011;6664;52.514;13.440;2023-03-08T11:29:05;1.70;;;1.60;;
13197;SDS011;6664;52.514;13.440;2023-03-08T11:32:31;3.33;;;2.07;;
13197;SDS011;6664;52.514;13.440;2023-03-08T11:35:50;4.40;;;1.60;;
13197;SDS011;6664;52.514;13.440;2023-03-08T11:38:42;1.63;;;1.53;;
13197;SDS011;6664;52.514;13.440;2023-03-08T11:54:11;7.20;;;1.63;;
13197;SDS011;6664;52.514;13.440;2023-03-08T11:57:05;1.60;;;1.50;;
13197;SDS011;6664;52.514;13.440;2023-03-08T11:59:55;3.03;;;1.70;;
13197;SDS011;6664;52.514;13.440;2023-03-08T12:02:46;2.70;;;2.20;;
13197;SDS011;6664;52.514;13.440;2023-03-08T12:05:33;1.90;;;1.80;;
13197;SDS011;6664;52.514;13.440;2023-03-08T12:08:28;1.70;;;1.60;;
13197;SDS011;6664;52.514;13.440;2023-03-08T12:11:26;1.60;;;1.50;;
13197;SDS011;6664;52.514;13.440;2023-03-08T12:14:22;4.30;;;2.07;;
13197;SDS011;6664;52.514;13.440;2023-03-08T12:17:24;1.87;;;1.77;;
13197;SDS011;6664;52.514;13.440;2023-03-08T12:20:24;2.17;;;1.80;;
13197;SDS011;6664;52.514;13.440;2023-03-08T12:23:22;2.77;;;1.90;;
13197;SDS011;6664;52.514;13.440;2023-03-08T12:26:25;3.70;;;2.07;;
13197;SDS011;6664;52.514;13.440;2023-03-08T12:29:17;2.17;;;1.97;;
13197;SDS011;6664;52.514;13.440;2023-03-08T12:32:10;1.73;;;1.50;;
13197;SDS011;6664;52.514;13.440;2023-03-08T12:35:03;2.00;;;1.57;;
13197;SDS011;6664;52.514;13.440;2023-03-08T12:40:59;2.63;;;1.80;;
13197;SDS011;6664;52.514;13.440;2023-03-08T12:43:44;2.23;;;2.00;;
13197;SDS011;6664;52.514;13.440;2023-03-08T12:46:49;2.20;;;1.73;;
13197;SDS011;6664;52.514;13.440;2023-03-08T12:49:51;2.60;;;2.20;;
13197;SDS011;6664;52.514;13.440;2023-03-08T12:52:40;3.00;;;1.73;;
13197;SDS011;6664;52.514;13.440;2023-03-08T12:55:27;2.53;;;1.47;;
13197;SDS011;6664;52.514;13.440;2023-03-08T12:58:17;2.30;;;2.10;;
13197;SDS011;6664;52.514;13.440;2023-03-08T13:01:04;3.80;;;1.80;;
13197;SDS011;6664;52.514;13.440;2023-03-08T13:03:51;2.10;;;1.90;;
13197;SDS011;6664;52.514;13.440;2023-03-08T13:06:48;2.30;;;2.10;;
13197;SDS011;6664;52.514;13.440;2023-03-08T13:19:27;2.57;;;2.37;;
13197;SDS011;6664;52.514;13.440;2023-03-08T13:22:17;1.60;;;1.50;;
13197;SDS011;6664;52.514;13.440;2023-03-08T13:28:22;2.10;;;2.00;;
13197;SDS011;6664;52.514;13.440;2023-03-08T13:31:30;1.77;;;1.67;;
13197;SDS011;6664;52.514;13.440;2023-03-08T13:34:26;2.00;;;1.90;;
13197;SDS011;6664;52.514;13.440;2023-03-08T13:37:21;3.77;;;2.03;;
13197;SDS011;6664;52.514;13.440;2023-03-08T13:40:18;1.87;;;1.77;;
13197;SDS011;6664;52.514;13.440;2023-03-08T13:43:05;2.23;;;2.03;;
13197;SDS011;6664;52.514;13.440;2023-03-08T13:45:55;3.37;;;2.73;;
13197;SDS011;6664;52.514;13.440;2023-03-08T13:48:43;2.80;;;2.40;;
13197;SDS011;6664;52.514;13.440;2023-03-08T13:51:30;4.53;;;2.23;;
13197;SDS011;6664;52.514;13.440;2023-03-08T13:54:16;2.40;;;2.20;;
13197;SDS011;6664;52.514;13.440;2023-03-08T13:57:17;3.73;;;2.50;;
13197;SDS011;6664;52.514;13.440;2023-03-08T14:03:18;2.27;;;2.07;;
13197;SDS011;6664;52.514;13.440;2023-03-08T14:06:15;3.27;;;2.70;;
13197;SDS011;6664;52.514;13.440;2023-03-08T14:09:09;2.20;;;2.10;;
13197;SDS011;6664;52.514;13.440;2023-03-08T14:12:01;3.10;;;2.70;;
13197;SDS011;6664;52.514;13.440;2023-03-08T14:14:52;2.27;;;2.00;;
13197;SDS011;6664;52.514;13.440;2023-03-08T14:17:41;5.60;;;3.10;;
13197;SDS011;6664;52.514;13.440;2023-03-08T14:20:26;4.23;;;3.20;;
13197;SDS011;6664;52.514;13.440;2023-03-08T14:23:20;4.90;;;2.87;;
13197;SDS011;6664;52.514;13.440;2023-03-08T14:29:21;3.87;;;3.20;;
13197;SDS011;6664;52.514;13.440;2023-03-08T14:35:03;3.47;;;3.17;;
13197;SDS011;6664;52.514;13.440;2023-03-08T14:37:51;3.07;;;2.77;;
13197;SDS011;6664;52.514;13.440;2023-03-08T14:40:46;3.80;;;3.13;;
13197;SDS011;6664;52.514;13.440;2023-03-08T14:43:33;4.87;;;2.93;;
13197;SDS011;6664;52.514;13.440;2023-03-08T14:46:21;3.60;;;3.30;;
13197;SDS011;6664;52.514;13.440;2023-03-08T14:49:17;3.07;;;2.80;;
13197;SDS011;6664;52.514;13.440;2023-03-08T14:52:17;3.93;;;3.40;;
13197;SDS011;6664;52.514;13.440;2023-03-08T14:55:18;4.77;;;3.47;;
13197;SDS011;6664;52.514;13.440;2023-03-08T14:58:10;6.47;;;4.20;;
13197;SDS011;6664;52.514;13.440;2023-03-08T15:01:00;4.70;;;3.83;;
13197;SDS011;6664;52.514;13.440;2023-03-08T15:03:48;4.47;;;4.07;;
13197;SDS011;6664;52.514;13.440;2023-03-08T15:06:35;3.90;;;3.60;;
13197;SDS011;6664;52.514;13.440;2023-03-08T15:09:23;4.30;;;3.30;;
13197;SDS011;6664;52.514;13.440;2023-03-08T15:12:12;4.80;;;4.20;;
13197;SDS011;6664;52.514;13.440;2023-03-08T15:14:58;4.67;;;3.23;;
13197;SDS011;6664;52.514;13.440;2023-03-08T15:17:45;7.03;;;4.00;;
13197;SDS011;6664;52.514;13.440;2023-03-08T15:20:36;3.70;;;3.40;;
13197;SDS011;6664;52.514;13.440;2023-03-08T15:23:32;4.87;;;4.03;;
13197;SDS011;6664;52.514;13.440;2023-03-08T15:26:27;4.13;;;3.80;;
13197;SDS011;6664;52.514;13.440;2023-03-08T15:29:36;4.63;;;4.00;;
13197;SDS011;6664;52.514;13.440;2023-03-08T15:32:22;4.47;;;3.60;;
13197;SDS011;6664;52.514;13.440;2023-03-08T15:35:07;8.37;;;4.30;;
13197;SDS011;6664;52.514;13.440;2023-03-08T15:37:55;6.63;;;5.80;;
13197;SDS011;6664;52.514;13.440;2023-03-08T15:40:41;5.43;;;4.07;;
13197;SDS011;6664;52.514;13.440;2023-03-08T15:43:27;3.57;;;3.27;;
13197;SDS011;6664;52.514;13.440;2023-03-08T15:46:17;4.23;;;3.80;;
13197;SDS011;6664;52.514;13.440;2023-03-08T15:49:02;4.30;;;3.53;;
13197;SDS011;6664;52.514;13.440;2023-03-08T15:51:48;6.43;;;3.60;;
13197;SDS011;6664;52.514;13.440;2023-03-08T15:54:36;4.00;;;3.47;;
13197;SDS011;6664;52.514;13.440;2023-03-08T15:57:26;3.93;;;3.53;;
13197;SDS011;6664;52.514;13.440;2023-03-08T16:00:13;3.97;;;3.30;;
13197;SDS011;6664;52.514;13.440;2023-03-08T16:02:59;5.07;;;3.93;;
13197;SDS011;6664;52.514;13.440;2023-03-08T16:05:47;3.60;;;3.30;;
13197;SDS011;6664;52.514;13.440;2023-03-08T16:08:32;4.47;;;3.40;;
13197;SDS011;6664;52.514;13.440;2023-03-08T16:11:19;3.93;;;3.40;;
13197;SDS011;6664;52.514;13.440;2023-03-08T16:14:07;4.60;;;3.20;;
13197;SDS011;6664;52.514;13.440;2023-03-08T16:16:53;3.43;;;3.13;;
13197;SDS011;6664;52.514;13.440;2023-03-08T16:19:41;3.83;;;3.10;;
13197;SDS011;6664;52.514;13.440;2023-03-08T16:22:27;4.10;;;3.63;;
13197;SDS011;6664;52.514;13.440;2023-03-08T16:25:15;6.40;;;3.77;;
13197;SDS011;6664;52.514;13.440;2023-03-08T16:28:01;4.90;;;3.37;;
13197;SDS011;6664;52.514;13.440;2023-03-08T16:30:47;4.33;;;3.17;;
13197;SDS011;6664;52.514;13.440;2023-03-08T16:33:32;2.80;;;2.60;;
13197;SDS011;6664;52.514;13.440;2023-03-08T16:36:17;3.13;;;2.90;;
13197;SDS011;6664;52.514;13.440;2023-03-08T16:39:03;3.70;;;3.00;;
13197;SDS011;6664;52.514;13.440;2023-03-08T16:41:54;5.60;;;3.63;;
13197;SDS011;6664;52.514;13.440;2023-03-08T16:44:49;3.37;;;3.07;;
13197;SDS011;6664;52.514;13.440;2023-03-08T16:47:36;3.03;;;2.80;;
13197;SDS011;6664;52.514;13.440;2023-03-08T16:50:22;4.30;;;3.90;;
13197;SDS011;6664;52.514;13.440;2023-03-08T16:53:10;5.67;;;3.60;;
13197;SDS011;6664;52.514;13.440;2023-03-08T16:55:58;3.90;;;3.20;;
13197;SDS011;6664;52.514;13.440;2023-03-08T16:58:45;4.53;;;2.77;;
13197;SDS011;6664;52.514;13.440;2023-03-08T17:01:31;3.80;;;2.93;;
13197;SDS011;6664;52.514;13.440;2023-03-08T17:04:17;3.00;;;2.63;;
13197;SDS011;6664;52.514;13.440;2023-03-08T17:07:06;2.40;;;2.23;;
13197;SDS011;6664;52.514;13.440;2023-03-08T17:10:10;2.50;;;2.30;;
13197;SDS011;6664;52.514;13.440;2023-03-08T17:12:56;3.77;;;2.53;;
13197;SDS011;6664;52.514;13.440;2023-03-08T17:15:44;3.60;;;3.30;;
13197;SDS011;6664;52.514;13.440;2023-03-08T17:18:32;3.00;;;2.80;;
13197;SDS011;6664;52.514;13.440;2023-03-08T17:21:18;2.77;;;2.10;;
13197;SDS011;6664;52.514;13.440;2023-03-08T17:24:05;5.17;;;3.90;;
13197;SDS011;6664;52.514;13.440;2023-03-08T17:26:52;3.10;;;2.80;;
13197;SDS011;6664;52.514;13.440;2023-03-08T17:29:38;2.97;;;2.63;;
13197;SDS011;6664;52.514;13.440;2023-03-08T17:32:26;6.53;;;2.70;;
13197;SDS011;6664;52.514;13.440;2023-03-08T17:35:15;2.53;;;2.33;;
13197;SDS011;6664;52.514;13.440;2023-03-08T17:38:01;3.30;;;3.00;;
13197;SDS011;6664;52.514;13.440;2023-03-08T17:40:46;3.03;;;2.70;;
13197;SDS011;6664;52.514;13.440;2023-03-08T17:43:33;5.27;;;3.60;;
13197;SDS011;6664;52.514;13.440;2023-03-08T17:46:20;4.13;;;2.73;;
13197;SDS011;6664;52.514;13.440;2023-03-08T17:49:08;3.17;;;2.63;;
13197;SDS011;6664;52.514;13.440;2023-03-08T17:51:55;2.97;;;2.77;;
13197;SDS011;6664;52.514;13.440;2023-03-08T17:54:41;5.70;;;3.00;;
13197;SDS011;6664;52.514;13.440;2023-03-08T17:57:26;2.80;;;2.60;;
13197;SDS011;6664;52.514;13.440;2023-03-08T18:00:14;2.70;;;2.50;;
13197;SDS011;6664;52.514;13.440;2023-03-08T18:03:01;6.93;;;3.30;;
13197;SDS011;6664;52.514;13.440;2023-03-08T18:05:50;3.23;;;2.50;;
13197;SDS011;6664;52.514;13.440;2023-03-08T18:08:36;4.40;;;3.10;;
13197;SDS011;6664;52.514;13.440;2023-03-08T18:11:22;4.87;;;2.80;;
13197;SDS011;6664;52.514;13.440;2023-03-08T18:14:11;3.50;;;3.20;;